createdAt,value
2017-05-29T00:00:05.887Z,14.12
2017-05-29T00:02:34.736Z,27.24
2017-05-29T00:05:03.592Z,16.94
2017-05-29T00:07:32.435Z,15.24
2017-05-29T00:10:01.283Z,11.86
2017-05-29T00:12:30.136Z,10.06
2017-05-29T00:14:58.984Z,12.46
2017-05-29T00:17:27.072Z,9.42
2017-05-29T00:19:55.925Z,11.82
2017-05-29T00:22:24.774Z,11.76
2017-05-29T00:24:53.631Z,43.38
2017-05-29T00:27:21.779Z,20.82
2017-05-29T00:29:50.695Z,20.30
2017-05-29T00:32:19.534Z,15.06
2017-05-29T00:34:48.399Z,9.70
2017-05-29T00:37:17.239Z,8.98
2017-05-29T00:39:46.094Z,9.28
2017-05-29T00:42:14.935Z,9.90
2017-05-29T00:44:43.770Z,10.98
2017-05-29T00:47:12.628Z,16.66
2017-05-29T00:52:15.948Z,24.22
2017-05-29T00:54:44.787Z,16.14
2017-05-29T00:57:13.659Z,14.46
2017-05-29T00:59:42.512Z,44.06
2017-05-29T01:02:11.363Z,31.12
2017-05-29T01:04:40.219Z,37.06
2017-05-29T01:07:09.076Z,32.26
2017-05-29T01:09:37.932Z,25.56
2017-05-29T01:12:06.783Z,15.90
2017-05-29T01:14:35.635Z,10.62
2017-05-29T01:17:04.475Z,9.92
2017-05-29T01:19:33.318Z,10.06
2017-05-29T01:22:02.208Z,11.06
2017-05-29T01:24:31.045Z,9.58
2017-05-29T01:26:59.907Z,9.60
2017-05-29T01:29:28.747Z,9.40
2017-05-29T01:31:57.616Z,9.48
2017-05-29T01:34:26.458Z,10.04
2017-05-29T01:36:55.306Z,10.50
2017-05-29T01:39:24.159Z,9.78
2017-05-29T01:41:52.236Z,9.24
2017-05-29T01:44:21.101Z,9.54
2017-05-29T01:46:49.932Z,9.56
2017-05-29T01:49:18.786Z,9.18
2017-05-29T01:51:47.629Z,9.68
2017-05-29T01:54:16.477Z,9.46
2017-05-29T01:56:44.564Z,10.22
2017-05-29T01:59:13.414Z,10.02
2017-05-29T02:01:42.264Z,10.16
2017-05-29T02:04:11.106Z,9.26
2017-05-29T02:06:39.963Z,10.54
2017-05-29T02:09:08.812Z,10.08
2017-05-29T02:11:37.656Z,9.06
2017-05-29T02:14:06.542Z,8.80
2017-05-29T02:16:35.384Z,11.62
2017-05-29T02:19:03.481Z,11.88
2017-05-29T02:21:32.434Z,11.38
2017-05-29T02:24:01.288Z,12.28
2017-05-29T02:26:30.139Z,11.82
2017-05-29T02:28:58.218Z,12.80
2017-05-29T02:31:27.072Z,12.84
2017-05-29T02:33:55.925Z,13.90
2017-05-29T02:36:24.775Z,10.26
2017-05-29T02:38:53.619Z,12.56
2017-05-29T02:41:22.478Z,13.34
2017-05-29T02:43:51.329Z,11.26
2017-05-29T02:46:20.170Z,12.94
2017-05-29T02:48:49.020Z,12.12
2017-05-29T02:51:17.992Z,11.18
2017-05-29T02:53:46.844Z,12.86
2017-05-29T02:56:15.691Z,12.82
2017-05-29T02:58:44.547Z,11.78
2017-05-29T03:01:13.404Z,11.00
2017-05-29T03:03:41.482Z,10.82
2017-05-29T03:06:10.878Z,11.02
2017-05-29T03:08:39.726Z,11.72
2017-05-29T03:11:08.587Z,13.22
2017-05-29T03:13:37.435Z,12.08
2017-05-29T03:16:06.425Z,11.74
2017-05-29T03:18:35.304Z,11.20
2017-05-29T03:21:04.146Z,11.32
2017-05-29T03:23:32.995Z,12.44
2017-05-29T03:26:01.876Z,11.10
2017-05-29T03:28:29.970Z,11.62
2017-05-29T03:30:58.823Z,12.08
2017-05-29T03:33:27.700Z,11.20
2017-05-29T03:35:56.560Z,12.36
2017-05-29T03:38:25.410Z,10.40
2017-05-29T03:40:54.256Z,10.76
2017-05-29T03:43:23.119Z,10.54
2017-05-29T03:45:51.977Z,12.22
2017-05-29T03:48:20.855Z,11.26
2017-05-29T03:50:49.711Z,11.84
2017-05-29T03:53:18.567Z,12.02
2017-05-29T03:55:47.412Z,29.32
2017-05-29T03:58:16.309Z,15.20
2017-05-29T04:00:45.155Z,19.44
2017-05-29T04:03:14.014Z,19.76
2017-05-29T04:05:42.855Z,19.32
2017-05-29T04:08:11.736Z,11.96
2017-05-29T04:10:40.583Z,11.24
2017-05-29T04:13:09.439Z,11.66
2017-05-29T04:15:38.306Z,11.04
2017-05-29T04:18:06.384Z,11.20
2017-05-29T04:20:35.252Z,13.00
2017-05-29T04:23:04.104Z,13.82
2017-05-29T04:25:32.959Z,12.06
2017-05-29T04:28:01.807Z,12.60
2017-05-29T04:30:30.657Z,12.28
2017-05-29T04:32:59.508Z,12.62
2017-05-29T04:35:28.371Z,13.84
2017-05-29T04:37:57.235Z,14.20
2017-05-29T04:40:26.087Z,11.96
2017-05-29T04:42:54.196Z,11.56
2017-05-29T04:45:23.036Z,11.56
2017-05-29T04:47:51.123Z,18.56
2017-05-29T04:50:19.975Z,10.02
2017-05-29T04:52:48.815Z,12.62
2017-05-29T04:55:17.668Z,9.46
2017-05-29T04:57:45.752Z,9.92
2017-05-29T05:00:14.690Z,13.84
2017-05-29T05:02:43.571Z,10.20
2017-05-29T05:05:12.430Z,18.14
2017-05-29T05:07:41.296Z,18.40
2017-05-29T05:10:10.227Z,13.14
2017-05-29T05:12:38.321Z,13.26
2017-05-29T05:15:07.175Z,11.20
2017-05-29T05:17:35.281Z,12.38
2017-05-29T05:20:04.135Z,10.70
2017-05-29T05:22:32.992Z,12.84
2017-05-29T05:25:01.859Z,10.72
2017-05-29T05:27:30.715Z,12.38
2017-05-29T05:29:58.795Z,11.54
2017-05-29T05:32:27.651Z,15.54
2017-05-29T05:34:56.539Z,14.98
2017-05-29T05:37:25.375Z,11.08
2017-05-29T05:39:54.234Z,10.62
2017-05-29T05:42:23.101Z,14.36
2017-05-29T05:44:52.060Z,17.12
2017-05-29T05:47:20.920Z,14.08
2017-05-29T05:49:49.000Z,17.16
2017-05-29T05:52:17.887Z,10.94
2017-05-29T05:54:46.727Z,11.22
2017-05-29T05:57:15.576Z,13.20
2017-05-29T05:59:43.681Z,17.08
2017-05-29T06:02:12.527Z,10.22
2017-05-29T06:04:41.389Z,11.32
2017-05-29T06:07:10.235Z,12.10
2017-05-29T06:09:39.104Z,13.72
2017-05-29T06:12:07.943Z,11.54
2017-05-29T06:14:36.787Z,10.62
2017-05-29T06:17:05.658Z,11.84
2017-05-29T06:19:34.511Z,15.66
2017-05-29T06:22:03.367Z,16.80
2017-05-29T06:24:32.199Z,13.20
2017-05-29T06:27:01.056Z,11.62
2017-05-29T06:29:29.917Z,11.96
2017-05-29T06:31:58.764Z,13.04
2017-05-29T06:34:27.619Z,19.12
2017-05-29T06:36:56.466Z,11.54
2017-05-29T06:39:25.323Z,14.22
2017-05-29T06:41:54.180Z,13.20
2017-05-29T06:44:23.048Z,11.28
2017-05-29T06:46:51.883Z,10.72
2017-05-29T06:49:20.883Z,12.08
2017-05-29T06:51:49.744Z,11.10
2017-05-29T06:54:18.590Z,13.34
2017-05-29T06:56:47.435Z,10.02
2017-05-29T06:59:16.285Z,10.30
2017-05-29T07:01:45.176Z,12.08
2017-05-29T07:04:14.031Z,14.26
2017-05-29T07:06:42.891Z,10.96
2017-05-29T07:09:10.992Z,15.34
2017-05-29T07:11:39.072Z,12.92
2017-05-29T07:14:07.946Z,11.32
2017-05-29T07:16:36.798Z,10.86
2017-05-29T07:19:05.627Z,9.60
2017-05-29T07:21:34.480Z,10.72
2017-05-29T07:24:03.405Z,10.88
2017-05-29T07:26:32.281Z,14.78
2017-05-29T07:29:01.144Z,13.54
2017-05-29T07:31:29.996Z,13.28
2017-05-29T07:33:58.847Z,15.72
2017-05-29T07:36:27.706Z,10.34
2017-05-29T07:38:56.591Z,12.10
2017-05-29T07:41:25.474Z,12.38
2017-05-29T07:43:54.336Z,10.72
2017-05-29T07:46:23.192Z,11.98
2017-05-29T07:48:51.279Z,11.78
2017-05-29T07:51:20.147Z,9.36
2017-05-29T07:53:48.991Z,10.80
2017-05-29T07:56:17.854Z,13.64
2017-05-29T07:58:45.926Z,12.56
2017-05-29T08:01:15.068Z,10.92
2017-05-29T08:03:43.920Z,7.74
2017-05-29T08:06:12.775Z,8.68
2017-05-29T08:08:41.624Z,7.92
2017-05-29T08:11:10.479Z,8.12
2017-05-29T08:13:39.351Z,9.20
2017-05-29T08:16:09.211Z,6.48
2017-05-29T08:18:38.055Z,8.50
2017-05-29T08:21:06.911Z,8.00
2017-05-29T08:23:35.800Z,10.76
2017-05-29T08:26:04.647Z,7.64
2017-05-29T08:28:33.515Z,8.22
2017-05-29T08:31:02.364Z,7.80
2017-05-29T08:33:31.211Z,8.40
2017-05-29T08:36:00.112Z,8.44
2017-05-29T08:38:28.183Z,6.20
2017-05-29T08:40:57.051Z,5.80
2017-05-29T08:43:25.946Z,8.50
2017-05-29T08:45:54.916Z,7.52
2017-05-29T08:48:23.763Z,10.32
2017-05-29T08:50:51.835Z,7.76
2017-05-29T08:53:20.690Z,8.46
2017-05-29T08:55:49.551Z,11.40
2017-05-29T08:58:18.396Z,6.88
2017-05-29T09:00:47.240Z,8.32
2017-05-29T09:03:16.154Z,8.12
2017-05-29T09:05:45.005Z,10.88
2017-05-29T09:08:13.864Z,6.86
2017-05-29T09:10:41.943Z,7.56
2017-05-29T09:13:10.793Z,7.94
2017-05-29T09:15:39.637Z,8.72
2017-05-29T09:18:08.547Z,7.56
2017-05-29T09:20:37.416Z,8.50
2017-05-29T09:23:06.269Z,7.22
2017-05-29T09:25:35.153Z,11.38
2017-05-29T09:28:04.017Z,7.22
2017-05-29T09:30:32.856Z,9.82
2017-05-29T09:33:00.942Z,9.10
2017-05-29T09:35:29.785Z,13.42
2017-05-29T09:37:58.630Z,7.20
2017-05-29T09:40:27.550Z,8.22
2017-05-29T09:42:56.415Z,5.90
2017-05-29T09:45:25.259Z,6.76
2017-05-29T09:47:54.127Z,8.16
2017-05-29T09:50:22.963Z,8.70
2017-05-29T09:52:51.799Z,6.10
2017-05-29T09:55:20.688Z,9.94
2017-05-29T09:57:49.527Z,6.78
2017-05-29T10:00:18.379Z,10.46
2017-05-29T10:02:47.231Z,10.26
2017-05-29T10:05:16.084Z,6.72
2017-05-29T10:07:44.919Z,7.78
2017-05-29T10:10:13.791Z,9.22
2017-05-29T10:12:42.631Z,7.26
2017-05-29T10:15:11.467Z,8.74
2017-05-29T10:17:40.316Z,5.42
2017-05-29T10:20:09.163Z,7.24
2017-05-29T10:22:38.003Z,6.14
2017-05-29T10:25:06.844Z,5.70
2017-05-29T10:27:35.695Z,7.46
2017-05-29T10:30:04.534Z,5.18
2017-05-29T10:32:33.379Z,12.38
2017-05-29T10:35:02.228Z,5.94
2017-05-29T10:37:31.084Z,5.38
2017-05-29T10:39:59.168Z,6.04
2017-05-29T10:42:28.038Z,9.76
2017-05-29T10:44:56.911Z,8.44
2017-05-29T10:47:25.762Z,7.34
2017-05-29T10:49:54.943Z,13.32
2017-05-29T10:52:23.839Z,5.90
2017-05-29T10:54:52.682Z,7.20
2017-05-29T10:57:21.543Z,6.06
2017-05-29T10:59:50.380Z,8.44
2017-05-29T11:02:19.245Z,5.94
2017-05-29T11:04:48.232Z,7.98
2017-05-29T11:07:17.077Z,4.28
2017-05-29T11:09:45.931Z,7.24
2017-05-29T11:12:14.798Z,6.90
2017-05-29T11:14:43.666Z,5.32
2017-05-29T11:17:12.509Z,4.62
2017-05-29T11:19:41.371Z,5.34
2017-05-29T11:22:10.233Z,5.70
2017-05-29T11:24:39.074Z,5.52
2017-05-29T11:27:07.919Z,5.46
2017-05-29T11:29:36.755Z,5.50
2017-05-29T11:32:05.603Z,5.30
2017-05-29T11:34:34.460Z,5.12
2017-05-29T11:37:03.307Z,5.56
2017-05-29T11:39:32.154Z,4.56
2017-05-29T11:42:00.298Z,5.02
2017-05-29T11:44:29.163Z,6.02
2017-05-29T11:46:57.999Z,6.16
2017-05-29T11:49:26.839Z,6.26
2017-05-29T11:51:55.766Z,5.40
2017-05-29T11:54:25.284Z,6.32
2017-05-29T11:56:54.134Z,5.46
2017-05-29T11:59:22.980Z,10.34
2017-05-29T12:01:51.858Z,5.48
2017-05-29T12:04:30.631Z,6.66
2017-05-29T12:06:59.487Z,4.44
2017-05-29T12:09:28.335Z,5.42
2017-05-29T12:11:57.227Z,6.36
2017-05-29T12:14:26.072Z,5.48
2017-05-29T12:16:54.911Z,7.14
2017-05-29T12:19:23.751Z,5.54
2017-05-29T12:21:52.592Z,5.34
2017-05-29T12:24:21.463Z,4.62
2017-05-29T12:26:50.307Z,5.04
2017-05-29T12:29:19.142Z,5.92
2017-05-29T12:31:48.695Z,4.66
2017-05-29T12:34:17.532Z,4.32
2017-05-29T12:36:46.475Z,3.92
2017-05-29T12:39:15.307Z,4.88
2017-05-29T12:41:44.162Z,5.96
2017-05-29T12:44:12.992Z,5.68
2017-05-29T12:46:41.830Z,5.36
2017-05-29T12:49:09.921Z,6.16
2017-05-29T12:51:38.758Z,4.82
2017-05-29T12:54:07.607Z,5.04
2017-05-29T12:56:36.439Z,5.58
2017-05-29T12:59:05.296Z,5.20
2017-05-29T13:01:34.138Z,5.86
2017-05-29T13:04:02.976Z,6.58
2017-05-29T13:06:31.885Z,5.96
2017-05-29T13:09:00.831Z,5.70
2017-05-29T13:11:29.685Z,5.26
2017-05-29T13:13:58.531Z,5.78
2017-05-29T13:16:27.383Z,6.08
2017-05-29T13:18:56.223Z,6.00
2017-05-29T13:21:25.059Z,5.30
2017-05-29T13:23:54.035Z,5.74
2017-05-29T13:26:22.867Z,7.88
2017-05-29T13:28:50.956Z,5.04
2017-05-29T13:31:19.809Z,7.20
2017-05-29T13:33:47.944Z,5.94
2017-05-29T13:36:16.783Z,5.78
2017-05-29T13:38:44.868Z,6.70
2017-05-29T13:41:13.711Z,6.32
2017-05-29T13:43:42.595Z,7.88
2017-05-29T13:46:11.427Z,6.68
2017-05-29T13:48:40.264Z,6.78
2017-05-29T13:51:09.111Z,7.54
2017-05-29T13:53:37.190Z,7.50
2017-05-29T13:56:06.026Z,7.56
2017-05-29T13:58:34.875Z,7.44
2017-05-29T14:01:03.906Z,6.76
2017-05-29T14:03:32.763Z,6.08
2017-05-29T14:06:01.599Z,6.30
2017-05-29T14:08:30.467Z,6.04
2017-05-29T14:10:59.311Z,6.86
2017-05-29T14:13:28.147Z,6.26
2017-05-29T14:15:57.081Z,5.34
2017-05-29T14:18:25.927Z,6.18
2017-05-29T14:20:54.775Z,6.16
2017-05-29T14:23:23.607Z,6.02
2017-05-29T14:25:52.476Z,6.24
2017-05-29T14:28:21.307Z,5.72
2017-05-29T14:30:50.148Z,6.24
2017-05-29T14:33:18.997Z,6.50
2017-05-29T14:35:47.875Z,5.30
2017-05-29T14:38:16.722Z,6.96
2017-05-29T14:40:44.799Z,6.78
2017-05-29T14:43:14.817Z,6.40
2017-05-29T14:45:43.656Z,7.44
2017-05-29T14:48:12.507Z,6.44
2017-05-29T14:50:40.587Z,6.86
2017-05-29T14:53:09.476Z,6.02
2017-05-29T14:55:38.327Z,6.18
2017-05-29T14:58:07.172Z,6.90
2017-05-29T15:00:36.032Z,6.38
2017-05-29T15:03:04.867Z,6.76
2017-05-29T15:05:33.712Z,8.24
2017-05-29T15:08:02.555Z,6.16
2017-05-29T15:10:31.395Z,6.64
2017-05-29T15:12:59.699Z,7.22
2017-05-29T15:15:28.563Z,6.42
2017-05-29T15:17:56.652Z,6.08
2017-05-29T15:20:25.487Z,6.30
2017-05-29T15:22:54.323Z,9.04
2017-05-29T15:25:23.167Z,7.02
2017-05-29T15:27:52.019Z,6.80
2017-05-29T15:30:20.903Z,5.56
2017-05-29T15:32:49.733Z,7.40
2017-05-29T15:35:18.683Z,6.98
2017-05-29T15:37:47.515Z,6.28
2017-05-29T15:40:16.463Z,6.72
2017-05-29T15:42:45.374Z,7.34
2017-05-29T15:45:14.239Z,7.00
2017-05-29T15:47:42.323Z,7.04
2017-05-29T15:50:11.160Z,6.40
2017-05-29T15:52:40.032Z,6.76
2017-05-29T15:55:08.860Z,8.12
2017-05-29T15:57:37.709Z,6.46
2017-05-29T16:00:06.559Z,6.64
2017-05-29T16:02:35.395Z,6.92
2017-05-29T16:05:04.239Z,8.68
2017-05-29T16:07:33.070Z,6.80
2017-05-29T16:10:01.946Z,6.98
2017-05-29T16:12:30.011Z,6.10
2017-05-29T16:14:58.909Z,7.20
2017-05-29T16:17:27.087Z,7.10
2017-05-29T16:19:55.952Z,6.70
2017-05-29T16:22:24.799Z,7.76
2017-05-29T16:24:53.635Z,7.18
2017-05-29T16:27:21.755Z,5.86
2017-05-29T16:29:50.595Z,6.84
2017-05-29T16:32:18.667Z,7.82
2017-05-29T16:34:47.528Z,7.32
2017-05-29T16:37:16.376Z,6.98
2017-05-29T16:39:45.221Z,6.20
2017-05-29T16:42:14.057Z,5.94
2017-05-29T16:44:42.932Z,6.28
2017-05-29T16:47:11.007Z,7.32
2017-05-29T16:49:39.849Z,7.60
2017-05-29T16:52:08.696Z,6.94
2017-05-29T16:54:37.538Z,6.76
2017-05-29T16:57:06.382Z,6.60
2017-05-29T16:59:35.219Z,7.04
2017-05-29T17:02:04.066Z,6.66
2017-05-29T17:04:32.905Z,7.50
2017-05-29T17:07:02.139Z,6.62
2017-05-29T17:09:30.991Z,7.20
2017-05-29T17:11:59.826Z,6.94
2017-05-29T17:14:28.667Z,7.66
2017-05-29T17:16:57.499Z,6.52
2017-05-29T17:19:26.374Z,7.68
2017-05-29T17:21:55.220Z,8.88
2017-05-29T17:24:24.084Z,7.84
2017-05-29T17:26:52.927Z,7.38
2017-05-29T17:29:21.764Z,7.84
2017-05-29T17:31:50.615Z,10.24
2017-05-29T17:34:19.456Z,7.84
2017-05-29T17:36:48.323Z,8.20
2017-05-29T17:39:16.397Z,6.62
2017-05-29T17:41:45.451Z,9.40
2017-05-29T17:44:15.234Z,6.94
2017-05-29T17:46:44.075Z,7.70
2017-05-29T17:49:12.168Z,7.52
2017-05-29T17:51:41.002Z,8.12
2017-05-29T17:54:09.872Z,7.40
2017-05-29T17:56:38.714Z,7.76
2017-05-29T17:59:07.560Z,7.38
2017-05-29T18:01:36.404Z,8.22
2017-05-29T18:04:05.239Z,8.56
2017-05-29T18:06:34.087Z,8.88
2017-05-29T18:09:02.922Z,7.72
2017-05-29T18:11:31.797Z,7.34
2017-05-29T18:14:00.651Z,7.44
2017-05-29T18:16:30.021Z,7.26
2017-05-29T18:18:58.867Z,6.26
2017-05-29T18:21:27.713Z,8.02
2017-05-29T18:23:56.555Z,6.94
2017-05-29T18:26:25.420Z,7.10
2017-05-29T18:28:54.327Z,7.90
2017-05-29T18:31:22.443Z,9.68
2017-05-29T18:33:51.280Z,9.50
2017-05-29T18:36:20.158Z,12.68
2017-05-29T18:38:48.999Z,13.24
2017-05-29T18:41:17.851Z,11.96
2017-05-29T18:43:45.931Z,10.38
2017-05-29T18:46:14.803Z,10.52
2017-05-29T18:48:42.907Z,11.88
2017-05-29T18:51:11.763Z,11.14
2017-05-29T18:53:40.611Z,12.10
2017-05-29T18:56:09.466Z,16.44
2017-05-29T18:58:37.543Z,14.26
2017-05-29T19:01:06.395Z,14.10
2017-05-29T19:03:36.667Z,14.98
2017-05-29T19:06:05.536Z,12.12
2017-05-29T19:08:33.731Z,21.12
2017-05-29T19:11:02.637Z,25.10
2017-05-29T19:13:31.662Z,21.22
2017-05-29T19:16:01.408Z,14.70
2017-05-29T19:18:32.165Z,14.74
2017-05-29T19:21:02.212Z,11.64
2017-05-29T19:23:33.916Z,10.40
2017-05-29T19:26:03.912Z,10.12
2017-05-29T19:28:34.047Z,10.28
2017-05-29T19:31:03.257Z,12.52
2017-05-29T19:33:49.995Z,18.08
2017-05-29T19:36:21.612Z,14.14
2017-05-29T19:38:51.860Z,14.84
2017-05-29T19:41:24.243Z,12.42
2017-05-29T19:43:56.181Z,13.24
2017-05-29T19:46:25.427Z,14.64
2017-05-29T19:48:59.264Z,17.62
2017-05-29T19:51:29.039Z,27.64
2017-05-29T19:54:10.879Z,15.78
2017-05-29T19:56:39.842Z,16.70
2017-05-29T19:59:10.407Z,12.40
2017-05-29T20:01:42.279Z,11.30
2017-05-29T20:04:22.160Z,14.76
2017-05-29T20:07:04.313Z,14.08
2017-05-29T20:09:35.642Z,17.32
2017-05-29T20:12:04.771Z,13.00
2017-05-29T20:14:35.591Z,15.08
2017-05-29T20:17:08.416Z,16.76
2017-05-29T20:19:39.148Z,13.68
2017-05-29T20:22:11.837Z,12.54
2017-05-29T20:24:52.411Z,12.46
2017-05-29T20:27:23.689Z,11.74
2017-05-29T20:29:56.922Z,10.16
2017-05-29T20:32:28.448Z,10.74
2017-05-29T20:35:10.727Z,14.12
2017-05-29T20:38:03.380Z,10.84
2017-05-29T20:40:32.276Z,12.76
2017-05-29T20:43:01.211Z,13.16
2017-05-29T20:45:30.072Z,10.74
2017-05-29T20:47:58.915Z,12.12
2017-05-29T20:50:27.774Z,12.20
2017-05-29T20:52:56.620Z,12.86
2017-05-29T20:55:25.540Z,12.20
2017-05-29T20:57:53.628Z,15.10
2017-05-29T21:00:22.467Z,17.00
2017-05-29T21:02:52.002Z,15.56
2017-05-29T21:05:20.842Z,14.84
2017-05-29T21:07:49.715Z,15.98
2017-05-29T21:10:17.787Z,17.50
2017-05-29T21:12:46.667Z,15.48
2017-05-29T21:15:15.563Z,14.24
2017-05-29T21:17:44.454Z,14.30
2017-05-29T21:20:13.309Z,12.58
2017-05-29T21:22:42.150Z,12.84
2017-05-29T21:25:10.995Z,13.28
2017-05-29T21:27:39.854Z,13.60
2017-05-29T21:30:08.731Z,13.98
2017-05-29T21:32:37.570Z,14.50
2017-05-29T21:35:06.410Z,18.22
2017-05-29T21:37:35.271Z,14.50
2017-05-29T21:40:04.151Z,18.28
2017-05-29T21:42:32.241Z,15.72
2017-05-29T21:45:01.078Z,16.34
2017-05-29T21:47:29.931Z,21.68
2017-05-29T21:49:58.837Z,14.34
2017-05-29T21:52:27.681Z,14.58
2017-05-29T21:54:56.627Z,16.22
2017-05-29T21:57:25.483Z,16.48
2017-05-29T21:59:54.336Z,17.32
2017-05-29T22:02:23.183Z,16.62
2017-05-29T22:04:52.050Z,19.98
2017-05-29T22:07:21.019Z,14.40
2017-05-29T22:09:49.863Z,18.10
2017-05-29T22:12:18.735Z,19.66
2017-05-29T22:14:47.594Z,18.72
2017-05-29T22:17:16.451Z,22.20
2017-05-29T22:19:45.296Z,15.52
2017-05-29T22:22:14.169Z,19.36
2017-05-29T22:24:43.061Z,17.68
2017-05-29T22:27:11.895Z,14.98
2017-05-29T22:29:40.735Z,17.30
2017-05-29T22:32:09.587Z,16.46
2017-05-29T22:34:38.440Z,18.98
2017-05-29T22:37:07.282Z,16.90
2017-05-29T22:39:36.134Z,15.36
2017-05-29T22:42:04.987Z,14.58
2017-05-29T22:44:33.826Z,18.42
2017-05-29T22:47:02.675Z,16.78
2017-05-29T22:49:31.523Z,15.62
2017-05-29T22:52:00.370Z,16.32
2017-05-29T22:54:29.214Z,16.02
2017-05-29T22:56:58.075Z,15.68
2017-05-29T22:59:26.914Z,16.14
2017-05-29T23:01:55.761Z,17.18
2017-05-29T23:04:24.739Z,16.24
2017-05-29T23:06:53.579Z,15.24
2017-05-29T23:09:22.432Z,15.50
2017-05-29T23:11:51.275Z,16.98
2017-05-29T23:14:20.127Z,17.70
2017-05-29T23:16:49.011Z,15.94
2017-05-29T23:19:17.848Z,16.58
2017-05-29T23:21:46.698Z,16.48
2017-05-29T23:24:15.540Z,16.80
2017-05-29T23:26:44.397Z,18.58
2017-05-29T23:29:13.239Z,15.64
2017-05-29T23:31:42.112Z,16.90
2017-05-29T23:34:10.960Z,15.66
2017-05-29T23:36:39.799Z,15.46
2017-05-29T23:39:08.644Z,16.88
2017-05-29T23:41:37.483Z,16.22
2017-05-29T23:44:06.335Z,14.66
2017-05-29T23:46:35.180Z,17.28
2017-05-29T23:49:04.031Z,16.92
2017-05-29T23:51:32.891Z,18.80
2017-05-29T23:54:01.738Z,18.60
2017-05-29T23:56:30.588Z,17.14
2017-05-29T23:58:59.435Z,18.06
